sensor_id;sensor_type;location;lat;lon;timestamp;P1;durP1;ratioP1;P2;durP2;ratioP2
44434;SDS011;30138;20.964;105.830;2023-04-25T00:00:18;67.13;;;38.30;;
44434;SDS011;30138;20.964;105.830;2023-04-25T00:05:27;70.32;;;38.67;;
44434;SDS011;30138;20.964;105.830;2023-04-25T00:10:34;81.80;;;42.63;;
44434;SDS011;30138;20.964;105.830;2023-04-25T00:15:41;78.75;;;42.95;;
44434;SDS011;30138;20.964;105.830;2023-04-25T00:20:51;72.32;;;43.17;;
44434;SDS011;30138;20.964;105.830;2023-04-25T00:25:58;74.45;;;45.80;;
44434;SDS011;30138;20.964;105.830;2023-04-25T00:31:06;86.40;;;47.58;;
44434;SDS011;30138;20.964;105.830;2023-04-25T00:36:15;84.70;;;47.97;;
44434;SDS011;30138;20.964;105.830;2023-04-25T00:41:22;89.68;;;49.05;;
44434;SDS011;30138;20.964;105.830;2023-04-25T00:46:31;81.55;;;47.22;;
44434;SDS011;30138;20.964;105.830;2023-04-25T00:51:41;85.53;;;48.15;;
44434;SDS011;30138;20.964;105.830;2023-04-25T00:56:48;85.53;;;48.10;;
44434;SDS011;30138;20.964;105.830;2023-04-25T01:01:55;74.95;;;46.67;;
44434;SDS011;30138;20.964;105.830;2023-04-25T01:07:05;78.85;;;43.30;;
44434;SDS011;30138;20.964;105.830;2023-04-25T01:12:12;69.13;;;38.95;;
44434;SDS011;30138;20.964;105.830;2023-04-25T01:17:19;64.82;;;37.63;;
44434;SDS011;30138;20.964;105.830;2023-04-25T01:22:28;51.72;;;33.08;;
44434;SDS011;30138;20.964;105.830;2023-04-25T01:27:35;49.92;;;29.08;;
44434;SDS011;30138;20.964;105.830;2023-04-25T01:32:42;48.15;;;25.88;;
44434;SDS011;30138;20.964;105.830;2023-04-25T01:37:51;41.38;;;24.08;;
44434;SDS011;30138;20.964;105.830;2023-04-25T01:42:58;38.70;;;23.00;;
44434;SDS011;30138;20.964;105.830;2023-04-25T01:48:06;35.60;;;21.30;;
44434;SDS011;30138;20.964;105.830;2023-04-25T01:53:18;29.52;;;18.75;;
44434;SDS011;30138;20.964;105.830;2023-04-25T01:58:28;30.83;;;17.52;;
44434;SDS011;30138;20.964;105.830;2023-04-25T02:04:04;28.90;;;17.13;;
44434;SDS011;30138;20.964;105.830;2023-04-25T02:09:17;26.80;;;14.80;;
44434;SDS011;30138;20.964;105.830;2023-04-25T02:14:29;30.42;;;13.52;;
44434;SDS011;30138;20.964;105.830;2023-04-25T02:19:56;24.80;;;12.45;;
44434;SDS011;30138;20.964;105.830;2023-04-25T02:25:05;17.63;;;10.77;;
44434;SDS011;30138;20.964;105.830;2023-04-25T02:30:13;18.65;;;10.60;;
44434;SDS011;30138;20.964;105.830;2023-04-25T02:35:20;18.80;;;9.48;;
44434;SDS011;30138;20.964;105.830;2023-04-25T02:40:32;16.08;;;9.98;;
44434;SDS011;30138;20.964;105.830;2023-04-25T02:45:39;14.82;;;8.43;;
44434;SDS011;30138;20.964;105.830;2023-04-25T02:50:46;18.20;;;8.32;;
44434;SDS011;30138;20.964;105.830;2023-04-25T02:55:55;16.92;;;7.57;;
44434;SDS011;30138;20.964;105.830;2023-04-25T03:01:03;12.32;;;7.20;;
44434;SDS011;30138;20.964;105.830;2023-04-25T03:06:10;12.88;;;7.80;;
44434;SDS011;30138;20.964;105.830;2023-04-25T03:11:19;14.82;;;8.05;;
44434;SDS011;30138;20.964;105.830;2023-04-25T03:16:26;19.20;;;8.20;;
44434;SDS011;30138;20.964;105.830;2023-04-25T03:21:33;17.63;;;8.98;;
44434;SDS011;30138;20.964;105.830;2023-04-25T03:26:43;22.75;;;9.52;;
44434;SDS011;30138;20.964;105.830;2023-04-25T03:31:53;20.58;;;9.30;;
44434;SDS011;30138;20.964;105.830;2023-04-25T03:36:59;18.80;;;9.90;;
44434;SDS011;30138;20.964;105.830;2023-04-25T03:42:13;24.42;;;9.18;;
44434;SDS011;30138;20.964;105.830;2023-04-25T03:47:20;18.63;;;9.20;;
44434;SDS011;30138;20.964;105.830;2023-04-25T03:52:27;17.48;;;8.77;;
44434;SDS011;30138;20.964;105.830;2023-04-25T03:57:36;17.95;;;8.45;;
44434;SDS011;30138;20.964;105.830;2023-04-25T04:02:43;14.15;;;7.65;;
44434;SDS011;30138;20.964;105.830;2023-04-25T04:07:50;11.77;;;7.07;;
44434;SDS011;30138;20.964;105.830;2023-04-25T04:13:00;11.80;;;7.47;;
44434;SDS011;30138;20.964;105.830;2023-04-25T04:18:09;12.82;;;7.03;;
44434;SDS011;30138;20.964;105.830;2023-04-25T04:23:16;13.63;;;7.63;;
44434;SDS011;30138;20.964;105.830;2023-04-25T04:28:27;12.95;;;7.30;;
44434;SDS011;30138;20.964;105.830;2023-04-25T04:33:46;15.50;;;6.82;;
44434;SDS011;30138;20.964;105.830;2023-04-25T04:38:54;18.00;;;6.97;;
44434;SDS011;30138;20.964;105.830;2023-04-25T04:44:14;10.35;;;6.60;;
44434;SDS011;30138;20.964;105.830;2023-04-25T04:49:40;12.52;;;7.45;;
44434;SDS011;30138;20.964;105.830;2023-04-25T04:55:17;17.23;;;7.93;;
44434;SDS011;30138;20.964;105.830;2023-04-25T05:06:03;19.48;;;8.25;;
44434;SDS011;30138;20.964;105.830;2023-04-25T05:11:30;18.65;;;8.02;;
44434;SDS011;30138;20.964;105.830;2023-04-25T05:17:08;18.90;;;8.18;;
44434;SDS011;30138;20.964;105.830;2023-04-25T05:22:35;17.83;;;8.45;;
44434;SDS011;30138;20.964;105.830;2023-04-25T05:27:59;17.92;;;9.07;;
44434;SDS011;30138;20.964;105.830;2023-04-25T05:33:31;18.80;;;8.10;;
44434;SDS011;30138;20.964;105.830;2023-04-25T05:38:38;17.10;;;8.00;;
44434;SDS011;30138;20.964;105.830;2023-04-25T05:43:49;15.23;;;8.00;;
44434;SDS011;30138;20.964;105.830;2023-04-25T05:49:04;17.10;;;7.60;;
44434;SDS011;30138;20.964;105.830;2023-04-25T05:54:32;16.67;;;7.40;;
44434;SDS011;30138;20.964;105.830;2023-04-25T05:59:39;14.00;;;7.00;;
44434;SDS011;30138;20.964;105.830;2023-04-25T06:04:51;15.02;;;7.45;;
44434;SDS011;30138;20.964;105.830;2023-04-25T06:09:58;12.75;;;6.90;;
44434;SDS011;30138;20.964;105.830;2023-04-25T06:15:08;14.73;;;6.60;;
44434;SDS011;30138;20.964;105.830;2023-04-25T06:20:16;13.82;;;6.95;;
44434;SDS011;30138;20.964;105.830;2023-04-25T06:25:25;16.97;;;7.27;;
44434;SDS011;30138;20.964;105.830;2023-04-25T06:30:33;18.45;;;7.80;;
44434;SDS011;30138;20.964;105.830;2023-04-25T06:35:49;13.50;;;7.97;;
44434;SDS011;30138;20.964;105.830;2023-04-25T06:41:00;16.75;;;8.57;;
44434;SDS011;30138;20.964;105.830;2023-04-25T06:46:10;22.73;;;8.60;;
44434;SDS011;30138;20.964;105.830;2023-04-25T06:56:32;14.88;;;7.88;;
44434;SDS011;30138;20.964;105.830;2023-04-25T07:01:57;23.80;;;7.38;;
44434;SDS011;30138;20.964;105.830;2023-04-25T07:07:06;14.43;;;6.97;;
44434;SDS011;30138;20.964;105.830;2023-04-25T07:12:20;17.92;;;7.20;;
44434;SDS011;30138;20.964;105.830;2023-04-25T07:17:27;16.35;;;7.20;;
44434;SDS011;30138;20.964;105.830;2023-04-25T07:22:37;9.68;;;6.00;;
44434;SDS011;30138;20.964;105.830;2023-04-25T07:27:44;12.05;;;6.25;;
44434;SDS011;30138;20.964;105.830;2023-04-25T07:32:53;10.85;;;6.28;;
44434;SDS011;30138;20.964;105.830;2023-04-25T07:38:02;11.15;;;6.55;;
44434;SDS011;30138;20.964;105.830;2023-04-25T07:43:14;16.42;;;6.82;;
44434;SDS011;30138;20.964;105.830;2023-04-25T07:48:28;13.25;;;7.38;;
44434;SDS011;30138;20.964;105.830;2023-04-25T07:53:39;19.70;;;7.68;;
44434;SDS011;30138;20.964;105.830;2023-04-25T08:04:48;16.38;;;7.10;;
44434;SDS011;30138;20.964;105.830;2023-04-25T08:09:57;18.60;;;7.47;;
44434;SDS011;30138;20.964;105.830;2023-04-25T08:15:08;14.93;;;6.93;;
44434;SDS011;30138;20.964;105.830;2023-04-25T08:20:17;14.07;;;7.30;;
44434;SDS011;30138;20.964;105.830;2023-04-25T08:25:29;19.63;;;7.80;;
44434;SDS011;30138;20.964;105.830;2023-04-25T08:30:37;16.23;;;7.80;;
44434;SDS011;30138;20.964;105.830;2023-04-25T08:35:47;16.83;;;8.05;;
44434;SDS011;30138;20.964;105.830;2023-04-25T08:40:56;17.38;;;7.57;;
44434;SDS011;30138;20.964;105.830;2023-04-25T08:46:04;13.83;;;7.70;;
44434;SDS011;30138;20.964;105.830;2023-04-25T08:56:36;18.00;;;7.88;;
44434;SDS011;30138;20.964;105.830;2023-04-25T09:01:48;19.73;;;8.27;;
44434;SDS011;30138;20.964;105.830;2023-04-25T09:06:56;20.00;;;8.48;;
44434;SDS011;30138;20.964;105.830;2023-04-25T09:12:06;14.73;;;8.18;;
44434;SDS011;30138;20.964;105.830;2023-04-25T09:17:15;20.67;;;9.47;;
44434;SDS011;30138;20.964;105.830;2023-04-25T09:22:27;20.70;;;10.30;;
44434;SDS011;30138;20.964;105.830;2023-04-25T09:27:37;23.98;;;10.38;;
44434;SDS011;30138;20.964;105.830;2023-04-25T09:33:06;24.98;;;11.95;;
44434;SDS011;30138;20.964;105.830;2023-04-25T09:38:21;23.13;;;12.43;;
44434;SDS011;30138;20.964;105.830;2023-04-25T09:43:46;26.23;;;12.82;;
44434;SDS011;30138;20.964;105.830;2023-04-25T09:48:55;24.87;;;12.90;;
44434;SDS011;30138;20.964;105.830;2023-04-25T09:54:11;28.60;;;13.32;;
44434;SDS011;30138;20.964;105.830;2023-04-25T09:59:24;28.48;;;12.68;;
44434;SDS011;30138;20.964;105.830;2023-04-25T10:04:33;23.60;;;12.60;;
44434;SDS011;30138;20.964;105.830;2023-04-25T10:09:48;29.55;;;13.23;;
44434;SDS011;30138;20.964;105.830;2023-04-25T10:14:59;29.70;;;13.43;;
44434;SDS011;30138;20.964;105.830;2023-04-25T10:20:08;23.50;;;12.63;;
44434;SDS011;30138;20.964;105.830;2023-04-25T10:25:16;24.60;;;13.02;;
44434;SDS011;30138;20.964;105.830;2023-04-25T10:30:25;25.08;;;12.95;;
44434;SDS011;30138;20.964;105.830;2023-04-25T10:35:31;25.98;;;12.80;;
44434;SDS011;30138;20.964;105.830;2023-04-25T10:40:40;26.20;;;13.32;;
44434;SDS011;30138;20.964;105.830;2023-04-25T10:45:57;27.67;;;14.10;;
44434;SDS011;30138;20.964;105.830;2023-04-25T10:51:08;25.27;;;13.80;;
44434;SDS011;30138;20.964;105.830;2023-04-25T10:56:18;32.60;;;15.15;;
44434;SDS011;30138;20.964;105.830;2023-04-25T11:01:27;27.17;;;14.32;;
44434;SDS011;30138;20.964;105.830;2023-04-25T11:06:44;29.58;;;14.02;;
44434;SDS011;30138;20.964;105.830;2023-04-25T11:12:02;26.02;;;13.27;;
44434;SDS011;30138;20.964;105.830;2023-04-25T11:17:12;25.88;;;11.70;;
44434;SDS011;30138;20.964;105.830;2023-04-25T11:22:19;24.05;;;12.05;;
44434;SDS011;30138;20.964;105.830;2023-04-25T11:27:28;24.13;;;11.40;;
44434;SDS011;30138;20.964;105.830;2023-04-25T11:32:39;19.75;;;11.18;;
44434;SDS011;30138;20.964;105.830;2023-04-25T11:37:48;20.38;;;11.70;;
44434;SDS011;30138;20.964;105.830;2023-04-25T11:42:55;25.67;;;11.27;;
44434;SDS011;30138;20.964;105.830;2023-04-25T11:48:06;29.35;;;12.27;;
44434;SDS011;30138;20.964;105.830;2023-04-25T11:53:19;23.98;;;11.13;;
44434;SDS011;30138;20.964;105.830;2023-04-25T12:04:14;23.60;;;10.85;;
44434;SDS011;30138;20.964;105.830;2023-04-25T12:09:51;25.02;;;11.48;;
44434;SDS011;30138;20.964;105.830;2023-04-25T12:20:16;25.60;;;12.63;;
44434;SDS011;30138;20.964;105.830;2023-04-25T12:25:36;26.08;;;12.63;;
44434;SDS011;30138;20.964;105.830;2023-04-25T12:30:55;27.92;;;12.15;;
44434;SDS011;30138;20.964;105.830;2023-04-25T12:36:08;24.73;;;12.88;;
44434;SDS011;30138;20.964;105.830;2023-04-25T12:41:15;25.92;;;12.27;;
44434;SDS011;30138;20.964;105.830;2023-04-25T12:46:22;26.25;;;12.23;;
44434;SDS011;30138;20.964;105.830;2023-04-25T12:51:31;27.15;;;12.25;;
44434;SDS011;30138;20.964;105.830;2023-04-25T12:56:37;22.63;;;11.60;;
44434;SDS011;30138;20.964;105.830;2023-04-25T13:01:45;23.23;;;12.02;;
44434;SDS011;30138;20.964;105.830;2023-04-25T13:06:55;25.08;;;12.00;;
44434;SDS011;30138;20.964;105.830;2023-04-25T13:12:02;24.92;;;12.00;;
44434;SDS011;30138;20.964;105.830;2023-04-25T13:17:09;21.80;;;11.45;;
44434;SDS011;30138;20.964;105.830;2023-04-25T13:22:21;25.67;;;11.57;;
44434;SDS011;30138;20.964;105.830;2023-04-25T13:27:28;20.80;;;10.27;;
44434;SDS011;30138;20.964;105.830;2023-04-25T13:32:35;24.17;;;10.82;;
44434;SDS011;30138;20.964;105.830;2023-04-25T13:37:45;18.55;;;10.88;;
44434;SDS011;30138;20.964;105.830;2023-04-25T13:43:50;21.60;;;10.02;;
44434;SDS011;30138;20.964;105.830;2023-04-25T13:48:37;14.90;;;9.07;;
44434;SDS011;30138;20.964;105.830;2023-04-25T13:54:01;19.43;;;9.93;;
44434;SDS011;30138;20.964;105.830;2023-04-25T13:59:36;25.23;;;10.45;;
44434;SDS011;30138;20.964;105.830;2023-04-25T14:04:44;18.42;;;9.32;;
44434;SDS011;30138;20.964;105.830;2023-04-25T14:09:53;16.88;;;9.40;;
44434;SDS011;30138;20.964;105.830;2023-04-25T14:15:00;18.10;;;10.15;;
44434;SDS011;30138;20.964;105.830;2023-04-25T14:20:08;21.00;;;10.50;;
44434;SDS011;30138;20.964;105.830;2023-04-25T14:25:19;20.48;;;11.75;;
44434;SDS011;30138;20.964;105.830;2023-04-25T14:30:26;25.25;;;12.63;;
44434;SDS011;30138;20.964;105.830;2023-04-25T14:35:33;22.98;;;11.88;;
44434;SDS011;30138;20.964;105.830;2023-04-25T14:40:43;25.27;;;11.40;;
44434;SDS011;30138;20.964;105.830;2023-04-25T14:45:50;25.85;;;12.20;;
44434;SDS011;30138;20.964;105.830;2023-04-25T14:50:58;22.08;;;12.18;;
44434;SDS011;30138;20.964;105.830;2023-04-25T14:56:07;24.65;;;12.50;;
44434;SDS011;30138;20.964;105.830;2023-04-25T15:01:14;29.92;;;13.18;;
44434;SDS011;30138;20.964;105.830;2023-04-25T15:06:24;23.65;;;12.75;;
44434;SDS011;30138;20.964;105.830;2023-04-25T15:11:33;28.88;;;13.27;;
44434;SDS011;30138;20.964;105.830;2023-04-25T15:16:41;30.13;;;13.63;;
44434;SDS011;30138;20.964;105.830;2023-04-25T15:21:48;24.83;;;12.52;;
44434;SDS011;30138;20.964;105.830;2023-04-25T15:26:57;21.58;;;12.98;;
44434;SDS011;30138;20.964;105.830;2023-04-25T15:32:06;23.95;;;13.48;;
44434;SDS011;30138;20.964;105.830;2023-04-25T15:37:12;26.30;;;13.65;;
44434;SDS011;30138;20.964;105.830;2023-04-25T15:42:23;27.48;;;14.23;;
44434;SDS011;30138;20.964;105.830;2023-04-25T15:47:39;31.63;;;14.43;;
44434;SDS011;30138;20.964;105.830;2023-04-25T15:52:45;29.13;;;15.80;;
44434;SDS011;30138;20.964;105.830;2023-04-25T15:57:57;31.92;;;16.02;;
44434;SDS011;30138;20.964;105.830;2023-04-25T16:03:03;26.73;;;15.57;;
44434;SDS011;30138;20.964;105.830;2023-04-25T16:08:10;29.15;;;16.00;;
44434;SDS011;30138;20.964;105.830;2023-04-25T16:13:32;33.00;;;16.02;;
44434;SDS011;30138;20.964;105.830;2023-04-25T16:18:54;27.25;;;17.45;;
44434;SDS011;30138;20.964;105.830;2023-04-25T16:24:01;29.92;;;17.75;;
44434;SDS011;30138;20.964;105.830;2023-04-25T16:29:11;35.65;;;18.70;;
44434;SDS011;30138;20.964;105.830;2023-04-25T16:34:18;30.95;;;18.25;;
44434;SDS011;30138;20.964;105.830;2023-04-25T16:39:29;33.53;;;18.88;;
44434;SDS011;30138;20.964;105.830;2023-04-25T16:44:40;35.67;;;18.23;;
44434;SDS011;30138;20.964;105.830;2023-04-25T16:49:47;30.98;;;18.70;;
44434;SDS011;30138;20.964;105.830;2023-04-25T16:54:54;41.72;;;18.27;;
44434;SDS011;30138;20.964;105.830;2023-04-25T17:00:04;33.13;;;17.88;;
44434;SDS011;30138;20.964;105.830;2023-04-25T17:05:14;32.88;;;19.35;;
44434;SDS011;30138;20.964;105.830;2023-04-25T17:10:21;36.70;;;17.85;;
44434;SDS011;30138;20.964;105.830;2023-04-25T17:15:30;29.02;;;17.80;;
44434;SDS011;30138;20.964;105.830;2023-04-25T17:20:36;31.10;;;17.17;;
44434;SDS011;30138;20.964;105.830;2023-04-25T17:25:44;29.95;;;17.70;;
44434;SDS011;30138;20.964;105.830;2023-04-25T17:30:53;28.90;;;17.48;;
44434;SDS011;30138;20.964;105.830;2023-04-25T17:36:00;30.08;;;18.17;;
44434;SDS011;30138;20.964;105.830;2023-04-25T17:41:08;34.83;;;18.05;;
44434;SDS011;30138;20.964;105.830;2023-04-25T17:46:17;30.40;;;18.35;;
44434;SDS011;30138;20.964;105.830;2023-04-25T17:51:25;29.77;;;18.00;;
44434;SDS011;30138;20.964;105.830;2023-04-25T17:56:34;25.92;;;16.92;;
44434;SDS011;30138;20.964;105.830;2023-04-25T18:01:44;34.10;;;17.30;;
44434;SDS011;30138;20.964;105.830;2023-04-25T18:06:54;28.42;;;18.13;;
44434;SDS011;30138;20.964;105.830;2023-04-25T18:12:01;33.72;;;17.17;;
44434;SDS011;30138;20.964;105.830;2023-04-25T18:17:10;33.40;;;17.30;;
44434;SDS011;30138;20.964;105.830;2023-04-25T18:22:17;26.88;;;16.02;;
44434;SDS011;30138;20.964;105.830;2023-04-25T18:27:24;26.92;;;16.40;;
44434;SDS011;30138;20.964;105.830;2023-04-25T18:32:33;26.67;;;15.18;;
44434;SDS011;30138;20.964;105.830;2023-04-25T18:37:40;27.15;;;15.93;;
44434;SDS011;30138;20.964;105.830;2023-04-25T18:42:47;32.10;;;16.80;;
44434;SDS011;30138;20.964;105.830;2023-04-25T18:47:55;27.92;;;15.60;;
44434;SDS011;30138;20.964;105.830;2023-04-25T18:53:02;31.50;;;16.85;;
44434;SDS011;30138;20.964;105.830;2023-04-25T18:58:09;29.45;;;17.60;;
44434;SDS011;30138;20.964;105.830;2023-04-25T19:03:17;35.25;;;20.33;;
44434;SDS011;30138;20.964;105.830;2023-04-25T19:08:24;41.03;;;20.73;;
44434;SDS011;30138;20.964;105.830;2023-04-25T19:13:30;41.90;;;23.15;;
44434;SDS011;30138;20.964;105.830;2023-04-25T19:18:40;43.35;;;24.27;;
44434;SDS011;30138;20.964;105.830;2023-04-25T19:23:48;42.20;;;23.70;;
44434;SDS011;30138;20.964;105.830;2023-04-25T19:29:07;42.22;;;26.23;;
44434;SDS011;30138;20.964;105.830;2023-04-25T19:34:16;55.97;;;29.73;;
44434;SDS011;30138;20.964;105.830;2023-04-25T19:39:23;48.60;;;28.85;;
44434;SDS011;30138;20.964;105.830;2023-04-25T19:44:31;56.92;;;29.52;;
44434;SDS011;30138;20.964;105.830;2023-04-25T19:49:42;46.22;;;28.77;;
44434;SDS011;30138;20.964;105.830;2023-04-25T19:54:49;47.38;;;28.08;;
44434;SDS011;30138;20.964;105.830;2023-04-25T19:59:59;44.05;;;26.55;;
44434;SDS011;30138;20.964;105.830;2023-04-25T20:05:15;50.90;;;28.02;;
44434;SDS011;30138;20.964;105.830;2023-04-25T20:10:22;44.55;;;27.52;;
44434;SDS011;30138;20.964;105.830;2023-04-25T20:15:29;49.33;;;26.83;;
44434;SDS011;30138;20.964;105.830;2023-04-25T20:20:37;47.03;;;26.80;;
44434;SDS011;30138;20.964;105.830;2023-04-25T20:25:44;50.38;;;25.90;;
44434;SDS011;30138;20.964;105.830;2023-04-25T20:30:50;47.13;;;26.02;;
44434;SDS011;30138;20.964;105.830;2023-04-25T20:36:00;51.53;;;26.13;;
44434;SDS011;30138;20.964;105.830;2023-04-25T20:41:07;48.08;;;26.05;;
44434;SDS011;30138;20.964;105.830;2023-04-25T20:46:13;53.50;;;26.67;;
44434;SDS011;30138;20.964;105.830;2023-04-25T20:51:22;41.95;;;25.63;;
44434;SDS011;30138;20.964;105.830;2023-04-25T20:56:29;53.25;;;26.83;;
44434;SDS011;30138;20.964;105.830;2023-04-25T21:01:37;47.83;;;26.17;;
44434;SDS011;30138;20.964;105.830;2023-04-25T21:06:45;53.55;;;28.42;;
44434;SDS011;30138;20.964;105.830;2023-04-25T21:11:52;52.90;;;29.75;;
44434;SDS011;30138;20.964;105.830;2023-04-25T21:16:59;55.35;;;29.25;;
44434;SDS011;30138;20.964;105.830;2023-04-25T21:22:07;45.08;;;27.23;;
44434;SDS011;30138;20.964;105.830;2023-04-25T21:27:14;50.75;;;27.70;;
44434;SDS011;30138;20.964;105.830;2023-04-25T21:32:21;49.17;;;26.38;;
44434;SDS011;30138;20.964;105.830;2023-04-25T21:37:30;50.45;;;26.60;;
44434;SDS011;30138;20.964;105.830;2023-04-25T21:42:36;44.38;;;27.05;;
44434;SDS011;30138;20.964;105.830;2023-04-25T21:47:45;44.47;;;26.10;;
44434;SDS011;30138;20.964;105.830;2023-04-25T21:52:54;47.53;;;26.48;;
44434;SDS011;30138;20.964;105.830;2023-04-25T21:58:02;40.72;;;24.17;;
44434;SDS011;30138;20.964;105.830;2023-04-25T22:03:08;37.17;;;23.10;;
44434;SDS011;30138;20.964;105.830;2023-04-25T22:08:19;47.00;;;24.33;;
44434;SDS011;30138;20.964;105.830;2023-04-25T22:13:25;39.70;;;23.20;;
44434;SDS011;30138;20.964;105.830;2023-04-25T22:18:34;41.35;;;23.83;;
44434;SDS011;30138;20.964;105.830;2023-04-25T22:23:45;41.35;;;23.75;;
44434;SDS011;30138;20.964;105.830;2023-04-25T22:28:52;43.97;;;24.40;;
44434;SDS011;30138;20.964;105.830;2023-04-25T22:33:59;41.90;;;23.50;;
44434;SDS011;30138;20.964;105.830;2023-04-25T22:39:08;46.63;;;25.30;;
44434;SDS011;30138;20.964;105.830;2023-04-25T22:44:16;43.13;;;24.27;;
44434;SDS011;30138;20.964;105.830;2023-04-25T22:49:23;44.42;;;24.15;;
44434;SDS011;30138;20.964;105.830;2023-04-25T22:54:32;45.60;;;25.13;;
44434;SDS011;30138;20.964;105.830;2023-04-25T22:59:40;44.92;;;24.45;;
44434;SDS011;30138;20.964;105.830;2023-04-25T23:04:47;48.70;;;25.42;;
44434;SDS011;30138;20.964;105.830;2023-04-25T23:09:56;47.63;;;24.77;;
44434;SDS011;30138;20.964;105.830;2023-04-25T23:15:04;44.30;;;24.92;;
44434;SDS011;30138;20.964;105.830;2023-04-25T23:20:12;52.08;;;26.02;;
44434;SDS011;30138;20.964;105.830;2023-04-25T23:25:21;48.22;;;26.67;;
44434;SDS011;30138;20.964;105.830;2023-04-25T23:30:28;52.72;;;26.20;;
44434;SDS011;30138;20.964;105.830;2023-04-25T23:35:36;54.95;;;28.60;;
44434;SDS011;30138;20.964;105.830;2023-04-25T23:40:46;52.17;;;28.20;;
44434;SDS011;30138;20.964;105.830;2023-04-25T23:45:53;50.78;;;28.10;;
44434;SDS011;30138;20.964;105.830;2023-04-25T23:51:00;53.95;;;28.10;;
44434;SDS011;30138;20.964;105.830;2023-04-25T23:56:09;47.60;;;27.85;;
